createdAt,value
2022-10-22T00:00:12.459Z,925.42
2022-10-22T00:02:39.416Z,953.38
2022-10-22T00:05:06.576Z,962.95
2022-10-22T00:07:33.494Z,963.47
2022-10-22T00:10:00.325Z,955.30
2022-10-22T00:12:27.189Z,952.00
2022-10-22T00:14:54.037Z,946.35
2022-10-22T00:17:20.844Z,943.65
2022-10-22T00:19:47.702Z,934.10
2022-10-22T00:22:14.561Z,225.82
2022-10-22T00:24:41.535Z,205.70
2022-10-22T00:27:14.191Z,860.45
2022-10-22T00:29:41.073Z,837.15
2022-10-22T00:32:07.952Z,832.97
2022-10-22T00:34:34.769Z,800.38
2022-10-22T00:37:01.585Z,824.58
2022-10-22T00:39:28.561Z,824.53
2022-10-22T00:41:55.892Z,833.58
2022-10-22T00:45:00.097Z,832.65
2022-10-22T00:47:28.527Z,771.60
2022-10-22T00:49:55.366Z,780.92
2022-10-22T00:52:22.240Z,799.58
2022-10-22T00:54:49.121Z,747.83
2022-10-22T00:57:16.927Z,776.47
2022-10-22T00:59:43.748Z,784.72
2022-10-22T01:02:10.571Z,789.22
2022-10-22T01:04:37.449Z,765.78
2022-10-22T01:07:04.277Z,809.63
2022-10-22T01:09:47.077Z,786.38
2022-10-22T01:12:39.753Z,769.30
2022-10-22T01:15:59.008Z,767.97
2022-10-22T01:18:45.964Z,682.13
2022-10-22T01:21:18.965Z,817.60
2022-10-22T01:24:23.029Z,787.13
2022-10-22T01:26:58.566Z,752.53
2022-10-22T01:29:37.447Z,789.17
2022-10-22T01:32:12.966Z,769.95
2022-10-22T01:34:40.643Z,784.70
2022-10-22T01:37:07.576Z,794.65
2022-10-22T01:39:34.443Z,789.15
2022-10-22T01:42:01.290Z,772.72
2022-10-22T01:44:32.719Z,970.17
2022-10-22T01:47:11.474Z,960.88
2022-10-22T01:49:41.784Z,976.90
2022-10-22T01:52:34.607Z,968.35
2022-10-22T01:55:16.534Z,970.55
2022-10-22T01:58:34.258Z,984.88
2022-10-22T02:01:09.281Z,960.80
2022-10-22T02:03:41.056Z,960.58
2022-10-22T02:06:11.285Z,979.83
2022-10-22T02:08:38.171Z,978.60
2022-10-22T02:11:05.106Z,968.67
2022-10-22T02:13:36.490Z,976.17
2022-10-22T02:16:04.694Z,973.25
2022-10-22T02:18:31.650Z,996.35
2022-10-22T02:20:58.965Z,970.10
2022-10-22T02:23:25.841Z,993.40
2022-10-22T02:26:02.239Z,930.03
2022-10-22T02:28:39.671Z,986.55
2022-10-22T02:31:13.642Z,969.00
2022-10-22T02:33:44.087Z,966.63
2022-10-22T02:36:10.931Z,980.72
2022-10-22T02:38:37.744Z,986.08
2022-10-22T02:41:04.586Z,969.03
2022-10-22T02:43:31.393Z,986.17
2022-10-22T02:45:58.235Z,965.95
2022-10-22T02:48:25.058Z,961.55
2022-10-22T02:50:51.937Z,958.08
2022-10-22T02:53:18.749Z,966.28
2022-10-22T02:55:45.564Z,953.65
2022-10-22T02:58:14.049Z,970.88
2022-10-22T03:00:40.946Z,935.70
2022-10-22T03:03:07.819Z,966.28
2022-10-22T03:05:34.617Z,968.70
2022-10-22T03:08:01.451Z,943.22
2022-10-22T03:10:28.304Z,939.13
2022-10-22T03:12:55.159Z,927.97
2022-10-22T03:15:22.104Z,936.47
2022-10-22T03:17:48.914Z,929.78
2022-10-22T03:20:15.802Z,909.55
2022-10-22T03:22:42.972Z,916.65
2022-10-22T03:25:12.250Z,893.33
2022-10-22T03:27:39.377Z,907.95
2022-10-22T03:30:07.278Z,908.95
2022-10-22T03:32:34.103Z,894.65
2022-10-22T03:37:32.911Z,886.13
2022-10-22T03:39:59.747Z,877.63
2022-10-22T03:42:26.575Z,860.72
2022-10-22T03:44:53.433Z,876.45
2022-10-22T03:47:20.282Z,854.13
2022-10-22T03:49:47.075Z,831.28
2022-10-22T03:52:14.512Z,833.42
2022-10-22T03:54:42.389Z,782.60
2022-10-22T03:57:09.692Z,808.40
2022-10-22T03:59:41.105Z,768.97
2022-10-22T04:02:08.140Z,806.05
2022-10-22T04:04:35.749Z,784.88
2022-10-22T04:07:02.663Z,785.10
2022-10-22T04:09:32.612Z,756.30
2022-10-22T04:11:59.965Z,726.27
2022-10-22T04:14:26.842Z,725.80
2022-10-22T04:16:53.774Z,744.53
2022-10-22T04:19:20.621Z,722.72
2022-10-22T04:21:47.422Z,678.42
2022-10-22T04:24:14.610Z,656.38
2022-10-22T04:26:41.569Z,589.85
2022-10-22T04:29:11.859Z,641.53
2022-10-22T04:31:42.010Z,544.55
2022-10-22T04:34:08.823Z,582.80
2022-10-22T04:36:35.624Z,610.28
2022-10-22T04:39:03.037Z,614.95
2022-10-22T04:41:34.966Z,592.60
2022-10-22T04:44:01.896Z,556.58
2022-10-22T04:46:30.142Z,595.03
2022-10-22T04:48:56.943Z,502.83
2022-10-22T04:51:25.171Z,501.15
2022-10-22T04:53:52.098Z,486.58
2022-10-22T04:56:20.805Z,446.63
2022-10-22T04:59:07.095Z,544.63
2022-10-22T05:01:42.601Z,400.73
2022-10-22T05:04:12.257Z,415.42
2022-10-22T05:06:39.214Z,443.67
2022-10-22T05:09:08.485Z,484.00
2022-10-22T05:11:36.784Z,485.55
2022-10-22T05:14:04.835Z,520.63
2022-10-22T05:16:32.152Z,508.30
2022-10-22T05:18:59.934Z,529.58
2022-10-22T05:21:26.906Z,514.67
2022-10-22T05:23:54.914Z,544.28
2022-10-22T05:26:22.380Z,539.58
2022-10-22T05:28:49.721Z,563.65
2022-10-22T05:31:16.869Z,615.72
2022-10-22T05:33:43.884Z,646.83
2022-10-22T05:36:16.049Z,681.65
2022-10-22T05:38:42.881Z,645.22
2022-10-22T05:41:11.431Z,716.97
2022-10-22T05:43:38.458Z,738.15
2022-10-22T05:46:10.086Z,740.30
2022-10-22T05:48:37.005Z,742.05
2022-10-22T05:51:11.205Z,738.25
2022-10-22T05:53:39.435Z,729.75
2022-10-22T05:56:08.015Z,772.13
2022-10-22T05:58:35.004Z,794.55
2022-10-22T06:01:05.562Z,829.53
2022-10-22T06:03:32.537Z,780.03
2022-10-22T06:06:03.406Z,814.92
2022-10-22T06:10:56.945Z,436.00
2022-10-22T06:13:23.797Z,800.47
2022-10-22T06:15:52.795Z,853.78
2022-10-22T06:18:20.056Z,895.42
2022-10-22T06:20:47.743Z,880.47
2022-10-22T06:23:15.405Z,905.33
2022-10-22T06:25:42.750Z,916.63
2022-10-22T06:28:09.905Z,902.42
2022-10-22T06:30:41.829Z,923.40
2022-10-22T06:33:11.203Z,922.20
2022-10-22T06:35:38.021Z,894.75
2022-10-22T06:38:05.502Z,849.53
2022-10-22T06:40:33.315Z,850.33
2022-10-22T06:43:00.484Z,844.40
2022-10-22T06:45:27.324Z,829.40
2022-10-22T06:47:55.614Z,827.83
2022-10-22T06:50:22.479Z,788.63
2022-10-22T06:52:49.344Z,790.38
2022-10-22T06:55:16.203Z,771.28
2022-10-22T06:57:43.544Z,780.20
2022-10-22T07:00:10.961Z,750.33
2022-10-22T07:02:38.068Z,770.25
2022-10-22T07:05:05.486Z,749.90
2022-10-22T07:07:32.319Z,771.80
2022-10-22T07:09:59.131Z,659.22
2022-10-22T07:12:26.144Z,622.33
2022-10-22T07:14:52.947Z,544.67
2022-10-22T07:17:19.748Z,539.75
2022-10-22T07:19:49.689Z,609.15
2022-10-22T07:22:18.193Z,646.15
2022-10-22T07:24:44.978Z,682.33
2022-10-22T07:27:11.910Z,656.97
2022-10-22T07:29:38.783Z,645.95
2022-10-22T07:32:05.693Z,603.55
2022-10-22T07:34:32.522Z,635.72
2022-10-22T07:36:59.464Z,596.80
2022-10-22T07:39:26.292Z,578.50
2022-10-22T07:41:53.350Z,579.22
2022-10-22T07:44:20.199Z,554.25
2022-10-22T07:46:48.916Z,567.83
2022-10-22T07:49:15.953Z,542.63
2022-10-22T07:51:42.808Z,554.85
2022-10-22T07:54:09.644Z,520.78
2022-10-22T07:56:36.466Z,519.00
2022-10-22T07:59:03.306Z,590.20
2022-10-22T08:01:30.153Z,665.40
2022-10-22T08:03:56.997Z,684.17
2022-10-22T08:06:23.838Z,700.70
2022-10-22T08:08:51.023Z,710.03
2022-10-22T08:11:17.900Z,748.05
2022-10-22T08:13:45.807Z,742.75
2022-10-22T08:16:13.076Z,761.55
2022-10-22T08:18:40.003Z,778.55
2022-10-22T08:21:07.168Z,719.85
2022-10-22T08:23:34.557Z,777.30
2022-10-22T08:26:03.061Z,813.13
2022-10-22T08:28:31.314Z,837.00
2022-10-22T08:30:58.232Z,965.53
2022-10-22T08:33:25.092Z,954.90
2022-10-22T08:35:52.107Z,1012.67
2022-10-22T08:38:19.102Z,981.55
2022-10-22T08:43:32.914Z,985.58
2022-10-22T08:46:26.310Z,981.40
2022-10-22T08:48:57.965Z,1010.42
2022-10-22T08:51:30.406Z,1007.20
2022-10-22T08:54:08.024Z,965.95
2022-10-22T08:56:36.249Z,995.88
2022-10-22T08:59:11.960Z,1021.38
2022-10-22T09:01:39.958Z,1004.05
2022-10-22T09:04:27.820Z,1015.67
2022-10-22T09:06:54.752Z,976.38
2022-10-22T09:09:21.714Z,1004.55
2022-10-22T09:11:50.341Z,1020.53
2022-10-22T09:14:20.066Z,1064.80
2022-10-22T09:17:05.022Z,1056.35
2022-10-22T09:19:54.411Z,1060.95
2022-10-22T09:22:30.065Z,1016.53
2022-10-22T09:25:21.355Z,1004.58
2022-10-22T09:27:48.906Z,1017.53
2022-10-22T09:30:20.855Z,1024.97
2022-10-22T09:32:52.221Z,1020.85
2022-10-22T09:35:21.601Z,991.40
2022-10-22T09:37:50.568Z,1004.27
2022-10-22T09:40:17.776Z,930.38
2022-10-22T09:42:46.463Z,958.90
2022-10-22T09:45:21.460Z,984.08
2022-10-22T09:48:01.495Z,999.90
2022-10-22T09:50:50.260Z,971.38
2022-10-22T09:53:20.978Z,1020.63
2022-10-22T09:55:59.149Z,981.08
2022-10-22T09:58:26.168Z,989.75
2022-10-22T10:01:00.256Z,1003.20
2022-10-22T10:03:28.670Z,970.80
2022-10-22T10:06:03.070Z,968.05
2022-10-22T10:08:32.849Z,938.70
2022-10-22T10:11:14.727Z,930.55
2022-10-22T10:13:56.670Z,928.17
2022-10-22T10:16:57.410Z,951.67
2022-10-22T10:19:38.603Z,927.85
2022-10-22T10:22:34.216Z,918.10
2022-10-22T10:25:34.403Z,894.08
2022-10-22T10:28:16.450Z,871.20
2022-10-22T10:31:17.892Z,898.88
2022-10-22T10:34:09.058Z,922.40
2022-10-22T10:37:11.081Z,886.47
2022-10-22T10:39:46.006Z,884.10
2022-10-22T10:42:19.198Z,900.53
2022-10-22T10:45:04.299Z,893.63
2022-10-22T10:47:45.364Z,885.90
2022-10-22T10:50:21.277Z,919.85
2022-10-22T10:53:19.583Z,919.55
2022-10-22T10:56:08.168Z,903.28
2022-10-22T10:59:01.631Z,893.05
2022-10-22T11:01:39.279Z,910.47
2022-10-22T11:04:08.928Z,926.88
2022-10-22T11:06:35.991Z,908.80
2022-10-22T11:09:12.891Z,911.85
2022-10-22T11:12:02.711Z,922.92
2022-10-22T11:14:47.320Z,885.92
2022-10-22T11:17:15.187Z,914.78
2022-10-22T11:20:01.517Z,926.78
2022-10-22T11:22:50.495Z,929.97
2022-10-22T11:25:53.788Z,911.25
2022-10-22T11:28:32.585Z,909.25
2022-10-22T11:31:04.351Z,905.83
2022-10-22T11:33:37.747Z,907.58
2022-10-22T11:36:05.066Z,906.05
2022-10-22T11:38:35.075Z,907.67
2022-10-22T11:41:05.753Z,905.00
2022-10-22T11:46:08.682Z,856.97
2022-10-22T11:48:37.619Z,876.90
2022-10-22T11:51:04.779Z,877.97
2022-10-22T11:53:32.485Z,893.90
2022-10-22T11:56:10.018Z,904.10
2022-10-22T11:58:42.174Z,884.92
2022-10-22T12:01:08.990Z,893.25
2022-10-22T12:03:45.081Z,875.13
2022-10-22T12:06:19.847Z,882.70
2022-10-22T12:08:49.583Z,853.08
2022-10-22T12:11:19.432Z,879.17
2022-10-22T12:14:02.082Z,859.40
2022-10-22T12:16:55.330Z,875.60
2022-10-22T12:19:23.303Z,872.38
2022-10-22T12:21:55.130Z,871.63
2022-10-22T12:24:23.381Z,858.97
2022-10-22T12:26:52.733Z,856.88
2022-10-22T12:29:22.813Z,861.57
2022-10-22T12:31:49.703Z,890.63
2022-10-22T12:34:18.563Z,883.65
2022-10-22T12:36:46.649Z,861.90
2022-10-22T12:39:22.412Z,909.00
2022-10-22T12:41:49.283Z,848.63
2022-10-22T12:44:17.472Z,887.55
2022-10-22T12:46:45.594Z,896.80
2022-10-22T12:49:23.863Z,858.53
2022-10-22T12:51:50.746Z,897.45
2022-10-22T12:54:28.449Z,855.80
2022-10-22T12:56:55.768Z,867.85
2022-10-22T12:59:36.058Z,874.88
2022-10-22T13:02:04.902Z,883.17
2022-10-22T13:04:36.794Z,878.88
2022-10-22T13:07:16.963Z,883.00
2022-10-22T13:09:55.812Z,870.78
2022-10-22T13:12:35.377Z,880.75
2022-10-22T13:15:21.794Z,887.58
2022-10-22T13:17:50.007Z,873.50
2022-10-22T13:20:21.497Z,862.78
2022-10-22T13:23:02.899Z,883.67
2022-10-22T13:25:30.537Z,880.17
2022-10-22T13:27:58.105Z,885.70
2022-10-22T13:30:32.244Z,866.65
2022-10-22T13:33:02.898Z,883.72
2022-10-22T13:35:37.370Z,892.97
2022-10-22T13:38:11.474Z,880.80
2022-10-22T13:40:39.098Z,880.33
2022-10-22T13:43:05.905Z,875.17
2022-10-22T13:45:32.799Z,885.10
2022-10-22T13:47:59.621Z,874.53
2022-10-22T13:50:26.401Z,883.17
2022-10-22T13:52:54.473Z,866.78
2022-10-22T13:55:25.657Z,867.92
2022-10-22T13:58:19.474Z,878.78
2022-10-22T14:00:57.561Z,879.55
2022-10-22T14:03:27.259Z,873.58
2022-10-22T14:05:54.120Z,856.45
2022-10-22T14:08:21.461Z,868.40
2022-10-22T14:10:48.428Z,867.38
2022-10-22T14:13:16.862Z,872.75
2022-10-22T14:15:44.300Z,861.30
2022-10-22T14:18:12.836Z,861.75
2022-10-22T14:20:40.502Z,866.35
2022-10-22T14:23:18.928Z,856.72
2022-10-22T14:25:45.742Z,850.78
2022-10-22T14:28:12.651Z,849.83
2022-10-22T14:30:39.571Z,865.92
2022-10-22T14:33:17.324Z,852.03
2022-10-22T14:35:44.172Z,846.22
2022-10-22T14:38:11.086Z,863.88
2022-10-22T14:40:41.995Z,869.72
2022-10-22T14:43:14.640Z,862.28
2022-10-22T14:45:41.487Z,849.03
2022-10-22T14:48:08.598Z,869.63
2022-10-22T14:50:35.499Z,855.08
2022-10-22T14:53:02.332Z,864.97
2022-10-22T14:55:29.245Z,858.65
2022-10-22T14:57:56.066Z,855.05
2022-10-22T15:00:22.921Z,852.50
2022-10-22T15:02:49.752Z,857.08
2022-10-22T15:05:17.531Z,851.88
2022-10-22T15:07:45.053Z,850.10
2022-10-22T15:10:11.935Z,867.38
2022-10-22T15:12:38.781Z,865.90
2022-10-22T15:15:06.180Z,865.83
2022-10-22T15:17:33.077Z,862.78
2022-10-22T15:20:04.080Z,848.10
2022-10-22T15:22:32.077Z,850.17
2022-10-22T15:24:58.952Z,855.33
2022-10-22T15:27:25.963Z,870.40
2022-10-22T15:29:52.885Z,861.63
2022-10-22T15:32:19.806Z,861.03
2022-10-22T15:34:46.632Z,875.00
2022-10-22T15:37:14.095Z,857.03
2022-10-22T15:39:41.757Z,866.20
2022-10-22T15:42:09.622Z,866.38
2022-10-22T15:44:36.734Z,869.15
2022-10-22T15:47:04.136Z,871.03
2022-10-22T15:49:30.998Z,884.67
2022-10-22T15:51:57.823Z,860.03
2022-10-22T15:54:26.462Z,869.95
2022-10-22T15:56:53.298Z,867.92
2022-10-22T15:59:20.134Z,880.67
2022-10-22T16:01:47.121Z,894.08
2022-10-22T16:04:13.964Z,898.53
2022-10-22T16:06:43.733Z,871.38
2022-10-22T16:09:12.587Z,874.43
2022-10-22T16:11:39.673Z,866.80
2022-10-22T16:14:06.677Z,883.95
2022-10-22T16:16:35.432Z,874.83
2022-10-22T16:19:02.294Z,855.35
2022-10-22T16:21:29.190Z,874.42
2022-10-22T16:23:56.025Z,867.95
2022-10-22T16:26:22.970Z,865.47
2022-10-22T16:28:49.837Z,880.67
2022-10-22T16:31:17.529Z,866.17
2022-10-22T16:33:47.748Z,852.10
2022-10-22T16:36:18.050Z,823.33
2022-10-22T16:38:45.778Z,864.72
2022-10-22T16:41:35.475Z,861.00
2022-10-22T16:44:04.715Z,851.55
2022-10-22T16:46:31.711Z,849.03
2022-10-22T16:48:58.607Z,870.78
2022-10-22T16:51:26.354Z,853.60
2022-10-22T16:53:53.356Z,856.20
2022-10-22T16:56:20.564Z,864.03
2022-10-22T16:58:49.548Z,859.42
2022-10-22T17:01:18.068Z,836.20
2022-10-22T17:03:45.311Z,833.95
2022-10-22T17:06:12.229Z,847.08
2022-10-22T17:08:39.186Z,839.92
2022-10-22T17:11:13.124Z,843.42
2022-10-22T17:13:42.956Z,853.50
2022-10-22T17:16:11.732Z,854.93
2022-10-22T17:18:39.655Z,842.17
2022-10-22T17:21:07.354Z,843.25
2022-10-22T17:23:34.228Z,847.80
2022-10-22T17:26:06.653Z,838.63
2022-10-22T17:28:33.741Z,824.97
2022-10-22T17:31:20.220Z,862.35
2022-10-22T17:33:47.278Z,839.25
2022-10-22T17:36:14.157Z,846.78
2022-10-22T17:38:41.365Z,850.72
2022-10-22T17:41:11.424Z,849.17
2022-10-22T17:43:41.376Z,836.08
2022-10-22T17:46:10.855Z,852.97
2022-10-22T17:48:37.738Z,832.33
2022-10-22T17:51:11.549Z,856.13
2022-10-22T17:53:41.559Z,853.45
2022-10-22T17:56:10.276Z,810.92
2022-10-22T17:58:37.393Z,821.38
2022-10-22T18:01:04.432Z,842.45
2022-10-22T18:03:31.332Z,823.95
2022-10-22T18:06:07.428Z,799.58
2022-10-22T18:08:34.344Z,790.25
2022-10-22T18:11:01.383Z,788.90
2022-10-22T18:13:28.380Z,774.30
2022-10-22T18:15:56.060Z,769.47
2022-10-22T18:18:25.951Z,768.33
2022-10-22T18:20:52.955Z,786.83
2022-10-22T18:23:19.939Z,792.88
2022-10-22T18:25:48.795Z,823.92
2022-10-22T18:28:16.426Z,812.92
2022-10-22T18:30:43.744Z,843.80
2022-10-22T18:33:12.123Z,842.42
2022-10-22T18:35:41.274Z,835.03
2022-10-22T18:38:09.100Z,822.03
2022-10-22T18:40:36.233Z,854.15
2022-10-22T18:43:03.539Z,853.67
2022-10-22T18:45:30.383Z,872.63
2022-10-22T18:47:58.886Z,867.85
2022-10-22T18:50:25.809Z,860.70
2022-10-22T18:52:52.659Z,846.90
2022-10-22T18:55:19.479Z,869.15
2022-10-22T18:57:46.308Z,867.90
2022-10-22T19:00:13.992Z,867.70
2022-10-22T19:02:41.145Z,887.80
2022-10-22T19:05:08.595Z,891.13
2022-10-22T19:07:36.617Z,929.15
2022-10-22T19:10:04.096Z,906.30
2022-10-22T19:12:30.912Z,906.78
2022-10-22T19:14:57.832Z,916.03
2022-10-22T19:17:25.120Z,902.78
2022-10-22T19:19:51.981Z,903.15
2022-10-22T19:22:19.022Z,909.20
2022-10-22T19:24:47.151Z,911.65
2022-10-22T19:27:13.978Z,905.00
2022-10-22T19:29:40.809Z,910.47
2022-10-22T19:34:41.215Z,920.88
2022-10-22T19:37:08.457Z,910.72
2022-10-22T19:39:35.396Z,927.50
2022-10-22T19:42:04.229Z,923.90
2022-10-22T19:44:31.072Z,916.25
2022-10-22T19:46:57.905Z,936.45
2022-10-22T19:49:24.747Z,960.03
2022-10-22T19:51:51.598Z,968.05
2022-10-22T19:54:19.669Z,968.05
2022-10-22T19:56:46.789Z,977.28
2022-10-22T19:59:15.188Z,984.13
2022-10-22T20:01:42.263Z,1003.03
2022-10-22T20:04:11.963Z,971.75
2022-10-22T20:06:39.332Z,1002.53
2022-10-22T20:09:06.573Z,981.30
2022-10-22T20:11:33.398Z,982.40
2022-10-22T20:14:00.256Z,1007.25
2022-10-22T20:16:29.903Z,976.47
2022-10-22T20:19:01.390Z,996.90
2022-10-22T20:21:28.278Z,980.58
2022-10-22T20:23:56.479Z,980.10
2022-10-22T20:26:24.547Z,970.00
2022-10-22T20:28:52.049Z,968.30
2022-10-22T20:31:19.980Z,916.97
2022-10-22T20:33:47.765Z,915.08
2022-10-22T20:36:17.574Z,939.70
2022-10-22T20:38:45.499Z,913.50
2022-10-22T20:41:14.042Z,940.00
2022-10-22T20:43:42.911Z,900.38
2022-10-22T20:46:16.910Z,943.88
2022-10-22T20:48:43.720Z,900.47
2022-10-22T20:51:10.555Z,1015.92
2022-10-22T20:53:37.359Z,1004.35
2022-10-22T20:56:04.411Z,992.13
2022-10-22T20:58:31.337Z,991.92
2022-10-22T21:00:58.330Z,965.35
2022-10-22T21:03:25.181Z,972.63
2022-10-22T21:05:52.049Z,946.63
2022-10-22T21:08:18.870Z,954.10
2022-10-22T21:10:49.300Z,941.47
2022-10-22T21:13:16.653Z,910.45
2022-10-22T21:15:43.489Z,900.35
2022-10-22T21:18:10.334Z,867.30
2022-10-22T21:20:39.191Z,866.83
2022-10-22T21:23:06.956Z,828.55
2022-10-22T21:25:33.940Z,855.42
2022-10-22T21:28:00.769Z,817.17
2022-10-22T21:30:27.660Z,829.38
2022-10-22T21:32:56.844Z,774.72
2022-10-22T21:35:24.219Z,763.67
2022-10-22T21:37:51.083Z,780.45
2022-10-22T21:40:17.921Z,801.50
2022-10-22T21:42:44.866Z,808.15
2022-10-22T21:45:13.613Z,795.45
2022-10-22T21:47:41.918Z,779.03
2022-10-22T21:50:09.344Z,749.55
2022-10-22T21:52:36.238Z,724.97
2022-10-22T21:55:03.068Z,735.20
2022-10-22T21:57:29.859Z,704.78
2022-10-22T21:59:56.876Z,641.88
2022-10-22T22:02:24.130Z,638.03
2022-10-22T22:04:54.852Z,606.83
2022-10-22T22:09:52.114Z,426.35
2022-10-22T22:12:21.159Z,462.33
2022-10-22T22:14:47.952Z,460.83
2022-10-22T22:17:16.587Z,481.17
2022-10-22T22:19:43.434Z,439.55
2022-10-22T22:22:10.321Z,387.05
2022-10-22T22:24:38.320Z,383.38
2022-10-22T22:27:05.212Z,325.42
2022-10-22T22:29:32.027Z,333.65
2022-10-22T22:31:58.866Z,318.10
2022-10-22T22:34:25.667Z,300.30
2022-10-22T22:36:52.727Z,256.15
2022-10-22T22:39:21.063Z,237.70
2022-10-22T22:41:48.049Z,188.60
2022-10-22T22:44:15.047Z,205.48
2022-10-22T22:46:41.960Z,158.75
2022-10-22T22:49:08.832Z,168.35
2022-10-22T22:51:35.815Z,172.32
2022-10-22T22:54:02.699Z,150.57
2022-10-22T22:56:30.776Z,129.80
2022-10-22T22:58:57.827Z,116.90
2022-10-22T23:01:29.303Z,104.40
2022-10-22T23:04:12.090Z,84.25
2022-10-22T23:06:38.998Z,68.55
2022-10-22T23:09:06.884Z,69.35
2022-10-22T23:11:33.896Z,51.97
2022-10-22T23:14:03.506Z,48.55
2022-10-22T23:16:32.220Z,43.78
2022-10-22T23:18:59.747Z,43.75
2022-10-22T23:21:33.959Z,33.90
2022-10-22T23:24:02.252Z,27.75
2022-10-22T23:26:34.181Z,26.25
2022-10-22T23:29:05.469Z,21.30
2022-10-22T23:31:32.274Z,19.08
2022-10-22T23:33:59.230Z,24.90
2022-10-22T23:36:26.167Z,24.15
2022-10-22T23:38:52.975Z,24.13
2022-10-22T23:41:19.799Z,24.48
2022-10-22T23:43:46.611Z,22.52
2022-10-22T23:46:13.517Z,21.55
2022-10-22T23:48:40.807Z,10.90
2022-10-22T23:51:14.376Z,7.55
2022-10-22T23:53:41.397Z,6.95
2022-10-22T23:56:09.946Z,5.32
2022-10-22T23:58:36.880Z,5.10
